createdAt,value
2023-03-06T00:00:05.194Z,0.01
2023-03-06T00:03:04.638Z,0.02
2023-03-06T00:05:37.503Z,0.01
2023-03-06T00:08:10.470Z,-0.02
2023-03-06T00:10:43.551Z,-0.07
2023-03-06T00:13:19.274Z,-0.11
2023-03-06T00:15:52.162Z,-0.16
2023-03-06T00:18:24.882Z,-0.17
2023-03-06T00:21:00.730Z,-0.14
2023-03-06T00:23:33.395Z,-0.09
2023-03-06T00:26:08.523Z,-0.03
2023-03-06T00:28:42.208Z,0.02
2023-03-06T00:31:15.102Z,0.04
2023-03-06T00:33:48.026Z,0.04
2023-03-06T00:36:21.186Z,0.00
2023-03-06T00:38:55.707Z,-0.03
2023-03-06T00:41:30.909Z,-0.07
2023-03-06T00:44:03.881Z,-0.10
2023-03-06T00:46:36.657Z,-0.13
2023-03-06T00:49:09.735Z,-0.12
2023-03-06T00:51:44.891Z,-0.08
2023-03-06T00:54:18.015Z,-0.04
2023-03-06T00:56:53.468Z,0.01
2023-03-06T00:59:27.671Z,0.07
2023-03-06T01:02:01.182Z,0.11
2023-03-06T01:04:34.358Z,0.13
2023-03-06T01:07:07.429Z,0.13
2023-03-06T01:09:40.284Z,0.13
2023-03-06T01:12:13.393Z,0.12
2023-03-06T01:14:47.515Z,0.08
2023-03-06T01:17:20.542Z,0.06
2023-03-06T01:19:53.465Z,0.02
2023-03-06T01:22:26.272Z,0.00
2023-03-06T01:24:58.996Z,-0.01
2023-03-06T01:27:33.746Z,-0.01
2023-03-06T01:30:07.639Z,-0.00
2023-03-06T01:32:40.498Z,0.00
2023-03-06T01:35:14.584Z,0.01
2023-03-06T01:37:47.413Z,0.00
2023-03-06T01:40:21.122Z,0.00
2023-03-06T01:42:55.201Z,-0.04
2023-03-06T01:46:02.599Z,-0.07
2023-03-06T01:48:35.736Z,-0.10
2023-03-06T01:51:08.705Z,-0.11
2023-03-06T01:53:43.443Z,-0.11
2023-03-06T01:56:17.262Z,-0.12
2023-03-06T01:58:51.589Z,-0.12
2023-03-06T02:01:24.764Z,-0.13
2023-03-06T02:03:58.531Z,-0.13
2023-03-06T02:06:32.171Z,-0.15
2023-03-06T02:09:09.560Z,-0.15
2023-03-06T02:11:44.415Z,-0.14
2023-03-06T02:14:18.621Z,-0.14
2023-03-06T02:16:51.943Z,-0.13
2023-03-06T02:19:39.409Z,-0.13
2023-03-06T02:22:12.172Z,-0.15
2023-03-06T02:24:53.241Z,-0.16
2023-03-06T02:27:28.031Z,-0.17
2023-03-06T02:30:01.382Z,-0.18
2023-03-06T02:32:34.900Z,-0.21
2023-03-06T02:35:19.238Z,-0.24
2023-03-06T02:37:52.996Z,-0.28
2023-03-06T02:40:28.630Z,-0.32
2023-03-06T02:43:02.649Z,-0.35
2023-03-06T02:45:38.779Z,-0.37
2023-03-06T02:48:12.303Z,-0.39
2023-03-06T02:50:46.285Z,-0.41
2023-03-06T02:53:21.443Z,-0.42
2023-03-06T02:55:53.971Z,-0.42
2023-03-06T02:58:29.418Z,-0.42
2023-03-06T03:01:02.232Z,-0.43
2023-03-06T03:03:35.365Z,-0.46
2023-03-06T03:06:11.425Z,-0.47
2023-03-06T03:08:44.318Z,-0.49
2023-03-06T03:11:17.704Z,-0.52
2023-03-06T03:13:50.805Z,-0.56
2023-03-06T03:16:27.909Z,-0.58
2023-03-06T03:19:03.242Z,-0.59
2023-03-06T03:21:36.790Z,-0.59
2023-03-06T03:24:10.656Z,-0.57
2023-03-06T03:26:43.537Z,-0.56
2023-03-06T03:29:20.453Z,-0.57
2023-03-06T03:31:53.343Z,-0.57
2023-03-06T03:34:29.715Z,-0.60
2023-03-06T03:37:03.130Z,-0.63
2023-03-06T03:39:37.560Z,-0.65
2023-03-06T03:42:10.838Z,-0.69
2023-03-06T03:44:44.673Z,-0.69
2023-03-06T03:47:17.497Z,-0.69
2023-03-06T03:49:50.381Z,-0.67
2023-03-06T03:52:25.692Z,-0.66
2023-03-06T03:54:58.798Z,-0.66
2023-03-06T03:57:31.869Z,-0.65
2023-03-06T04:00:08.141Z,-0.63
2023-03-06T04:02:48.275Z,-0.60
2023-03-06T04:05:41.338Z,-0.54
2023-03-06T04:08:14.871Z,-0.51
2023-03-06T04:10:51.584Z,-0.49
2023-03-06T04:13:26.111Z,-0.48
2023-03-06T04:16:04.080Z,-0.47
2023-03-06T04:18:37.886Z,-0.46
2023-03-06T04:21:11.263Z,-0.47
2023-03-06T04:23:44.804Z,-0.47
2023-03-06T04:26:17.776Z,-0.48
2023-03-06T04:28:51.296Z,-0.48
2023-03-06T04:31:24.728Z,-0.48
2023-03-06T04:33:57.738Z,-0.49
2023-03-06T04:36:33.741Z,-0.49
2023-03-06T04:39:10.692Z,-0.49
2023-03-06T04:41:43.744Z,-0.48
2023-03-06T04:44:16.511Z,-0.49
2023-03-06T04:46:52.491Z,-0.49
2023-03-06T04:49:25.357Z,-0.50
2023-03-06T04:51:58.195Z,-0.50
2023-03-06T04:54:30.923Z,-0.51
2023-03-06T04:57:04.175Z,-0.53
2023-03-06T04:59:39.297Z,-0.55
2023-03-06T05:02:12.002Z,-0.57
2023-03-06T05:04:45.073Z,-0.61
2023-03-06T05:07:17.804Z,-0.63
2023-03-06T05:09:50.387Z,-0.66
2023-03-06T05:12:24.321Z,-0.70
2023-03-06T05:14:57.285Z,-0.74
2023-03-06T05:17:30.379Z,-0.78
2023-03-06T05:20:06.207Z,-0.82
2023-03-06T05:22:39.106Z,-0.87
2023-03-06T05:25:14.811Z,-0.90
2023-03-06T05:27:48.205Z,-0.92
2023-03-06T05:30:23.399Z,-0.95
2023-03-06T05:32:58.376Z,-0.98
2023-03-06T05:35:45.866Z,-0.99
2023-03-06T05:38:24.494Z,-0.99
2023-03-06T05:40:57.392Z,-1.00
2023-03-06T05:43:33.357Z,-0.98
2023-03-06T05:46:10.544Z,-0.96
2023-03-06T05:48:45.326Z,-0.93
2023-03-06T05:51:19.673Z,-0.89
2023-03-06T05:53:52.570Z,-0.83
2023-03-06T05:56:25.399Z,-0.77
2023-03-06T05:58:59.576Z,-0.70
2023-03-06T06:01:32.221Z,-0.61
2023-03-06T06:04:05.010Z,-0.47
2023-03-06T06:06:37.838Z,-0.30
2023-03-06T06:09:13.989Z,-0.09
2023-03-06T06:11:47.178Z,0.11
2023-03-06T06:14:19.958Z,0.28
2023-03-06T06:16:53.551Z,0.43
2023-03-06T06:19:29.601Z,0.52
2023-03-06T06:22:04.117Z,0.60
2023-03-06T06:24:36.931Z,0.68
2023-03-06T06:27:10.400Z,0.71
2023-03-06T06:29:43.399Z,0.73
2023-03-06T06:32:16.411Z,0.75
2023-03-06T06:34:49.454Z,0.70
2023-03-06T06:37:22.312Z,0.71
2023-03-06T06:39:55.180Z,0.77
2023-03-06T06:42:36.984Z,0.86
2023-03-06T06:45:14.297Z,0.90
2023-03-06T06:47:47.127Z,0.97
2023-03-06T06:50:20.178Z,1.07
2023-03-06T06:52:53.088Z,1.18
2023-03-06T06:55:25.865Z,1.20
2023-03-06T06:57:58.876Z,1.18
2023-03-06T07:00:32.275Z,1.17
2023-03-06T07:03:05.298Z,1.25
2023-03-06T07:05:38.077Z,1.33
2023-03-06T07:08:11.013Z,1.36
2023-03-06T07:10:43.963Z,1.33
2023-03-06T07:13:17.574Z,1.29
2023-03-06T07:15:50.722Z,1.26
2023-03-06T07:18:23.236Z,1.27
2023-03-06T07:20:56.986Z,1.33
2023-03-06T07:23:30.582Z,1.36
2023-03-06T07:26:03.446Z,1.39
2023-03-06T07:28:51.268Z,1.45
2023-03-06T07:31:27.545Z,1.59
2023-03-06T07:34:00.529Z,1.69
2023-03-06T07:36:36.042Z,1.82
2023-03-06T07:39:09.058Z,1.94
2023-03-06T07:41:42.121Z,2.07
2023-03-06T07:44:15.012Z,2.24
2023-03-06T07:46:49.125Z,2.39
2023-03-06T07:49:21.867Z,2.50
2023-03-06T07:51:54.380Z,2.60
2023-03-06T07:54:27.116Z,2.67
2023-03-06T07:57:01.813Z,2.76
2023-03-06T07:59:34.553Z,2.84
2023-03-06T08:02:07.301Z,2.94
2023-03-06T08:04:39.985Z,3.04
2023-03-06T08:07:13.374Z,3.08
2023-03-06T08:09:47.449Z,3.13
2023-03-06T08:12:19.948Z,3.16
2023-03-06T08:14:52.525Z,3.26
2023-03-06T08:17:25.368Z,3.40
2023-03-06T08:19:58.154Z,3.55
2023-03-06T08:22:31.926Z,3.66
2023-03-06T08:25:06.063Z,3.75
2023-03-06T08:27:39.186Z,3.80
2023-03-06T08:30:15.081Z,3.89
2023-03-06T08:32:47.992Z,3.96
2023-03-06T08:35:22.592Z,4.04
2023-03-06T08:37:55.214Z,4.18
2023-03-06T08:40:30.720Z,4.30
2023-03-06T08:43:04.128Z,4.40
2023-03-06T08:45:36.827Z,4.55
2023-03-06T08:48:09.369Z,4.64
2023-03-06T08:50:43.899Z,4.71
2023-03-06T08:53:16.648Z,4.85
2023-03-06T08:55:49.817Z,5.05
2023-03-06T08:58:22.638Z,5.22
2023-03-06T09:00:55.613Z,5.29
2023-03-06T09:03:28.297Z,5.41
2023-03-06T09:06:02.501Z,5.48
2023-03-06T09:08:35.194Z,5.56
2023-03-06T09:11:09.584Z,5.58
2023-03-06T09:13:44.569Z,5.57
2023-03-06T09:16:17.347Z,5.61
2023-03-06T09:18:54.100Z,5.67
2023-03-06T09:21:28.813Z,5.71
2023-03-06T09:24:03.942Z,5.70
2023-03-06T09:26:46.171Z,5.68
2023-03-06T09:29:20.158Z,5.72
2023-03-06T09:31:52.684Z,5.82
2023-03-06T09:34:27.790Z,5.84
2023-03-06T09:37:03.053Z,5.82
2023-03-06T09:39:35.847Z,5.73
2023-03-06T09:42:14.917Z,5.73
2023-03-06T09:44:53.203Z,5.65
2023-03-06T09:47:51.831Z,5.64
2023-03-06T09:50:35.455Z,5.75
2023-03-06T09:53:33.984Z,5.91
2023-03-06T09:56:14.990Z,6.16
2023-03-06T09:58:52.909Z,6.37
2023-03-06T10:01:29.464Z,6.58
2023-03-06T10:04:10.693Z,6.81
2023-03-06T10:06:50.399Z,6.96
2023-03-06T10:09:26.659Z,6.99
2023-03-06T10:12:02.182Z,7.03
2023-03-06T10:14:39.344Z,7.06
2023-03-06T10:17:21.528Z,7.00
2023-03-06T10:19:55.458Z,6.92
2023-03-06T10:22:33.133Z,6.95
2023-03-06T10:25:14.443Z,6.97
2023-03-06T10:27:51.391Z,7.02
2023-03-06T10:30:35.108Z,7.06
2023-03-06T10:33:19.456Z,7.09
2023-03-06T10:35:55.022Z,7.23
2023-03-06T10:38:38.496Z,7.30
2023-03-06T10:41:23.187Z,7.36
2023-03-06T10:44:25.729Z,7.28
2023-03-06T10:46:58.470Z,7.17
2023-03-06T10:49:34.664Z,7.02
2023-03-06T10:52:22.083Z,6.89
2023-03-06T10:55:27.648Z,6.78
2023-03-06T10:58:17.796Z,6.79
2023-03-06T11:01:01.148Z,6.79
2023-03-06T11:03:34.348Z,6.74
2023-03-06T11:06:13.080Z,6.73
2023-03-06T11:08:47.515Z,6.74
2023-03-06T11:11:37.084Z,6.73
2023-03-06T11:14:18.509Z,6.76
2023-03-06T11:16:53.585Z,6.76
2023-03-06T11:19:29.810Z,6.78
2023-03-06T11:22:19.392Z,6.86
2023-03-06T11:24:55.438Z,6.92
2023-03-06T11:27:35.125Z,7.07
2023-03-06T11:30:19.146Z,7.28
2023-03-06T11:32:56.551Z,7.54
2023-03-06T11:35:35.856Z,7.81
2023-03-06T11:38:18.039Z,7.94
2023-03-06T11:40:55.876Z,7.88
2023-03-06T11:43:37.053Z,7.53
2023-03-06T11:46:17.752Z,7.32
2023-03-06T11:48:58.465Z,7.12
2023-03-06T11:51:36.247Z,6.98
2023-03-06T11:54:10.988Z,6.76
2023-03-06T11:56:53.223Z,6.68
2023-03-06T11:59:52.381Z,6.64
2023-03-06T12:02:39.561Z,6.65
2023-03-06T12:05:28.490Z,6.71
2023-03-06T12:08:12.878Z,6.79
2023-03-06T12:10:52.387Z,6.84
2023-03-06T12:13:42.534Z,6.93
2023-03-06T12:16:42.454Z,7.07
2023-03-06T12:19:33.322Z,7.25
2023-03-06T12:22:17.242Z,7.57
2023-03-06T12:25:07.922Z,7.75
2023-03-06T12:27:47.494Z,7.76
2023-03-06T12:30:33.507Z,7.78
2023-03-06T12:33:21.216Z,7.82
2023-03-06T12:36:15.549Z,7.85
2023-03-06T12:39:01.140Z,7.80
2023-03-06T12:41:44.884Z,7.79
2023-03-06T12:44:36.063Z,7.75
2023-03-06T12:47:13.011Z,7.75
2023-03-06T12:49:51.519Z,7.70
2023-03-06T12:52:30.512Z,7.60
2023-03-06T12:55:07.299Z,7.54
2023-03-06T12:57:41.822Z,7.55
2023-03-06T13:00:58.711Z,7.55
2023-03-06T13:03:54.641Z,7.52
2023-03-06T13:06:52.162Z,7.49
2023-03-06T13:09:34.815Z,7.44
2023-03-06T13:12:29.994Z,7.45
2023-03-06T13:15:20.781Z,7.53
2023-03-06T13:17:53.530Z,7.52
2023-03-06T13:20:40.948Z,7.53
2023-03-06T13:23:44.080Z,7.61
2023-03-06T13:26:55.431Z,7.71
2023-03-06T13:29:55.122Z,7.73
2023-03-06T13:32:34.994Z,7.69
2023-03-06T13:35:49.685Z,7.56
2023-03-06T13:39:07.344Z,7.43
2023-03-06T13:41:57.372Z,7.22
2023-03-06T13:44:51.153Z,7.09
2023-03-06T13:50:50.071Z,6.90
2023-03-06T13:53:55.309Z,6.83
2023-03-06T13:57:00.514Z,6.81
2023-03-06T14:00:03.087Z,6.82
2023-03-06T14:03:06.656Z,6.89
2023-03-06T14:05:47.467Z,6.99
2023-03-06T14:08:22.025Z,7.13
2023-03-06T14:11:06.187Z,7.33
2023-03-06T14:13:49.109Z,7.51
2023-03-06T14:16:24.959Z,7.70
2023-03-06T14:18:58.833Z,7.82
2023-03-06T14:21:39.516Z,7.92
2023-03-06T14:24:20.321Z,7.98
2023-03-06T14:26:54.306Z,7.97
2023-03-06T14:29:29.204Z,7.91
2023-03-06T14:32:06.074Z,7.86
2023-03-06T14:34:45.584Z,7.79
2023-03-06T14:37:26.939Z,7.71
2023-03-06T14:39:59.773Z,7.56
2023-03-06T14:42:33.172Z,7.45
2023-03-06T14:45:21.610Z,7.39
2023-03-06T14:47:55.238Z,7.34
2023-03-06T14:50:30.345Z,7.34
2023-03-06T14:53:07.785Z,7.33
2023-03-06T14:55:51.742Z,7.26
2023-03-06T14:58:31.158Z,7.12
2023-03-06T15:01:07.225Z,6.97
2023-03-06T15:03:48.896Z,6.85
2023-03-06T15:06:21.464Z,6.68
2023-03-06T15:09:02.463Z,6.44
2023-03-06T15:12:00.363Z,6.19
2023-03-06T15:14:38.867Z,5.94
2023-03-06T15:17:27.540Z,5.75
2023-03-06T15:20:02.761Z,5.61
2023-03-06T15:22:39.018Z,5.50
2023-03-06T15:25:26.851Z,5.37
2023-03-06T15:28:02.967Z,5.27
2023-03-06T15:30:37.135Z,5.21
2023-03-06T15:33:26.592Z,5.13
2023-03-06T15:36:01.944Z,5.06
2023-03-06T15:38:41.993Z,5.01
2023-03-06T15:41:29.833Z,4.97
2023-03-06T15:44:04.351Z,4.93
2023-03-06T15:46:37.805Z,4.88
2023-03-06T15:49:18.735Z,4.80
2023-03-06T15:51:53.774Z,4.70
2023-03-06T15:54:26.692Z,4.58
2023-03-06T15:57:01.197Z,4.51
2023-03-06T15:59:44.931Z,4.47
2023-03-06T16:02:22.056Z,4.40
2023-03-06T16:04:55.109Z,4.34
2023-03-06T16:07:29.300Z,4.29
2023-03-06T16:10:02.043Z,4.24
2023-03-06T16:12:35.325Z,4.15
2023-03-06T16:15:17.910Z,4.08
2023-03-06T16:17:53.050Z,4.04
2023-03-06T16:20:28.175Z,4.00
2023-03-06T16:23:01.238Z,3.96
2023-03-06T16:25:34.386Z,3.93
2023-03-06T16:28:11.680Z,3.91
2023-03-06T16:30:53.680Z,3.90
2023-03-06T16:33:36.617Z,3.89
2023-03-06T16:36:18.025Z,3.85
2023-03-06T16:38:52.018Z,3.83
2023-03-06T16:41:24.643Z,3.82
2023-03-06T16:43:57.217Z,3.82
2023-03-06T16:46:30.624Z,3.78
2023-03-06T16:49:15.220Z,3.75
2023-03-06T16:51:50.412Z,3.72
2023-03-06T16:54:26.179Z,3.69
2023-03-06T16:56:58.792Z,3.67
2023-03-06T16:59:31.770Z,3.61
2023-03-06T17:02:04.561Z,3.56
2023-03-06T17:04:37.612Z,3.50
2023-03-06T17:07:10.454Z,3.43
2023-03-06T17:09:43.635Z,3.39
2023-03-06T17:12:16.728Z,3.37
2023-03-06T17:14:49.763Z,3.33
2023-03-06T17:17:22.563Z,3.32
2023-03-06T17:20:16.885Z,3.29
2023-03-06T17:22:51.212Z,3.25
2023-03-06T17:25:35.674Z,3.17
2023-03-06T17:28:08.641Z,3.11
2023-03-06T17:31:03.515Z,3.01
2023-03-06T17:33:39.450Z,2.90
2023-03-06T17:36:22.673Z,2.80
2023-03-06T17:39:05.644Z,2.68
2023-03-06T17:41:38.354Z,2.59
2023-03-06T17:44:12.435Z,2.48
2023-03-06T17:46:48.596Z,2.39
2023-03-06T17:49:24.099Z,2.32
2023-03-06T17:51:59.878Z,2.23
2023-03-06T17:54:33.343Z,2.17
2023-03-06T17:57:06.681Z,2.10
2023-03-06T17:59:46.839Z,2.03
2023-03-06T18:02:21.285Z,1.97
2023-03-06T18:04:56.538Z,1.92
2023-03-06T18:07:29.203Z,1.88
2023-03-06T18:10:01.736Z,1.86
2023-03-06T18:12:34.644Z,1.83
2023-03-06T18:15:12.572Z,1.79
2023-03-06T18:17:45.241Z,1.76
2023-03-06T18:20:20.223Z,1.76
2023-03-06T18:23:04.734Z,1.79
2023-03-06T18:25:47.634Z,1.80
2023-03-06T18:28:20.447Z,1.80
2023-03-06T18:30:58.741Z,1.78
2023-03-06T18:33:33.018Z,1.77
2023-03-06T18:36:09.772Z,1.75
2023-03-06T18:38:44.091Z,1.75
2023-03-06T18:41:38.429Z,1.75
2023-03-06T18:44:31.266Z,1.75
2023-03-06T18:47:25.300Z,1.74
2023-03-06T18:50:18.873Z,1.74
2023-03-06T18:53:12.766Z,1.75
2023-03-06T18:55:56.733Z,1.75
2023-03-06T18:58:50.434Z,1.75
2023-03-06T19:01:25.560Z,1.75
2023-03-06T19:04:00.239Z,1.75
2023-03-06T19:06:33.307Z,1.76
2023-03-06T19:09:07.019Z,1.78
2023-03-06T19:11:39.826Z,1.81
2023-03-06T19:14:15.467Z,1.82
2023-03-06T19:16:50.475Z,1.82
2023-03-06T19:19:26.381Z,1.83
2023-03-06T19:22:02.406Z,1.82
2023-03-06T19:24:55.302Z,1.80
2023-03-06T19:27:27.863Z,1.77
2023-03-06T19:30:17.529Z,1.76
2023-03-06T19:33:03.098Z,1.74
2023-03-06T19:35:55.987Z,1.72
2023-03-06T19:38:29.946Z,1.72
2023-03-06T19:41:16.349Z,1.69
2023-03-06T19:44:10.642Z,1.66
2023-03-06T19:47:03.369Z,1.64
2023-03-06T19:49:57.659Z,1.61
2023-03-06T19:52:33.264Z,1.60
2023-03-06T19:55:10.881Z,1.57
2023-03-06T19:57:46.703Z,1.56
2023-03-06T20:00:30.578Z,1.54
2023-03-06T20:03:05.779Z,1.51
2023-03-06T20:05:51.214Z,1.49
2023-03-06T20:08:44.712Z,1.48
2023-03-06T20:11:37.521Z,1.46
2023-03-06T20:14:30.442Z,1.45
2023-03-06T20:17:05.522Z,1.45
2023-03-06T20:19:48.167Z,1.44
2023-03-06T20:22:31.855Z,1.43
2023-03-06T20:25:08.524Z,1.40
2023-03-06T20:28:01.333Z,1.38
2023-03-06T20:30:54.219Z,1.36
2023-03-06T20:33:36.240Z,1.36
2023-03-06T20:36:18.828Z,1.37
2023-03-06T20:38:51.832Z,1.38
2023-03-06T20:41:34.826Z,1.38
2023-03-06T20:44:18.874Z,1.37
2023-03-06T20:46:52.224Z,1.33
2023-03-06T20:49:28.552Z,1.30
2023-03-06T20:52:31.619Z,1.26
2023-03-06T20:55:08.474Z,1.24
2023-03-06T20:58:01.386Z,1.21
2023-03-06T21:00:54.187Z,1.19
2023-03-06T21:03:27.130Z,1.18
2023-03-06T21:06:09.121Z,1.16
2023-03-06T21:09:01.402Z,1.14
2023-03-06T21:11:44.317Z,1.11
2023-03-06T21:14:20.747Z,1.08
2023-03-06T21:17:13.967Z,1.06
2023-03-06T21:20:00.564Z,1.05
2023-03-06T21:22:46.798Z,1.05
2023-03-06T21:25:25.280Z,1.06
2023-03-06T21:28:08.003Z,1.07
2023-03-06T21:30:49.353Z,1.08
2023-03-06T21:33:42.692Z,1.08
2023-03-06T21:36:37.306Z,1.08
2023-03-06T21:39:30.127Z,1.10
2023-03-06T21:42:24.144Z,1.12
2023-03-06T21:45:07.877Z,1.15
2023-03-06T21:48:01.462Z,1.16
2023-03-06T21:50:54.240Z,1.17
2023-03-06T21:53:48.069Z,1.19
2023-03-06T21:56:40.721Z,1.21
2023-03-06T21:59:33.476Z,1.22
2023-03-06T22:02:11.497Z,1.22
2023-03-06T22:04:53.368Z,1.20
2023-03-06T22:07:47.542Z,1.16
2023-03-06T22:10:42.857Z,1.08
2023-03-06T22:13:35.753Z,1.01
2023-03-06T22:16:28.840Z,0.93
2023-03-06T22:19:21.728Z,0.84
2023-03-06T22:22:04.996Z,0.77
2023-03-06T22:24:56.379Z,0.70
2023-03-06T22:27:33.298Z,0.66
2023-03-06T22:30:26.033Z,0.63
2023-03-06T22:33:01.904Z,0.60
2023-03-06T22:35:34.678Z,0.61
2023-03-06T22:38:08.277Z,0.64
2023-03-06T22:40:40.943Z,0.67
2023-03-06T22:43:13.654Z,0.73
2023-03-06T22:45:46.563Z,0.80
2023-03-06T22:48:19.082Z,0.86
2023-03-06T22:50:54.728Z,0.90
2023-03-06T22:53:27.273Z,0.91
2023-03-06T22:56:02.031Z,0.89
2023-03-06T22:58:37.342Z,0.86
2023-03-06T23:01:12.402Z,0.84
2023-03-06T23:03:48.231Z,0.82
2023-03-06T23:06:23.782Z,0.82
2023-03-06T23:08:58.110Z,0.81
2023-03-06T23:11:31.927Z,0.82
2023-03-06T23:14:22.972Z,0.82
2023-03-06T23:17:13.884Z,0.84
2023-03-06T23:20:10.034Z,0.85
2023-03-06T23:23:00.982Z,0.85
2023-03-06T23:25:48.992Z,0.83
2023-03-06T23:28:21.551Z,0.79
2023-03-06T23:30:54.280Z,0.73
2023-03-06T23:33:27.124Z,0.68
2023-03-06T23:36:02.742Z,0.63
2023-03-06T23:38:36.111Z,0.60
2023-03-06T23:41:11.887Z,0.56
2023-03-06T23:43:45.102Z,0.55
2023-03-06T23:46:18.646Z,0.53
2023-03-06T23:48:51.734Z,0.52
2023-03-06T23:51:25.125Z,0.50
2023-03-06T23:53:59.558Z,0.49
2023-03-06T23:56:32.326Z,0.50
2023-03-06T23:59:04.845Z,0.52
